sensor_id;sensor_type;location;lat;lon;timestamp;temperature;humidity
7738;DHT22;29398;45.328;5.558;2022-10-03T00:00:00;16.90;99.90
7738;DHT22;29398;45.328;5.558;2022-10-03T00:01:34;16.90;99.90
7738;DHT22;29398;45.328;5.558;2022-10-03T00:03:59;16.90;99.90
7738;DHT22;29398;45.328;5.558;2022-10-03T00:06:27;16.90;99.90
7738;DHT22;29398;45.328;5.558;2022-10-03T00:07:56;16.80;99.90
7738;DHT22;29398;45.328;5.558;2022-10-03T00:09:29;16.80;99.90
7738;DHT22;29398;45.328;5.558;2022-10-03T00:10:50;16.80;99.90
7738;DHT22;29398;45.328;5.558;2022-10-03T00:12:07;16.80;99.90
7738;DHT22;29398;45.328;5.558;2022-10-03T00:14:21;16.80;99.90
7738;DHT22;29398;45.328;5.558;2022-10-03T00:16:41;16.90;99.90
7738;DHT22;29398;45.328;5.558;2022-10-03T00:17:52;16.90;99.90
7738;DHT22;29398;45.328;5.558;2022-10-03T00:19:13;16.90;99.90
7738;DHT22;29398;45.328;5.558;2022-10-03T00:20:37;16.90;99.90
7738;DHT22;29398;45.328;5.558;2022-10-03T00:24:01;16.90;99.90
7738;DHT22;29398;45.328;5.558;2022-10-03T00:25:20;16.80;99.90
7738;DHT22;29398;45.328;5.558;2022-10-03T00:26:32;16.90;99.90
7738;DHT22;29398;45.328;5.558;2022-10-03T00:27:39;16.80;99.90
7738;DHT22;29398;45.328;5.558;2022-10-03T00:28:50;16.80;99.90
7738;DHT22;29398;45.328;5.558;2022-10-03T00:31:10;16.70;99.90
7738;DHT22;29398;45.328;5.558;2022-10-03T00:33:30;16.70;99.90
7738;DHT22;29398;45.328;5.558;2022-10-03T00:35:47;16.70;99.90
7738;DHT22;29398;45.328;5.558;2022-10-03T00:37:08;16.60;99.90
7738;DHT22;29398;45.328;5.558;2022-10-03T00:39:52;16.60;99.90
7738;DHT22;29398;45.328;5.558;2022-10-03T00:41:11;16.50;99.90
7738;DHT22;29398;45.328;5.558;2022-10-03T00:44:07;16.50;99.90
7738;DHT22;29398;45.328;5.558;2022-10-03T00:45:59;16.50;99.90
7738;DHT22;29398;45.328;5.558;2022-10-03T00:47:26;16.60;99.90
7738;DHT22;29398;45.328;5.558;2022-10-03T00:48:52;16.50;99.90
7738;DHT22;29398;45.328;5.558;2022-10-03T00:51:25;16.60;99.90
7738;DHT22;29398;45.328;5.558;2022-10-03T00:54:33;16.60;99.90
7738;DHT22;29398;45.328;5.558;2022-10-03T00:55:49;16.60;99.90
7738;DHT22;29398;45.328;5.558;2022-10-03T00:59:21;16.60;99.90
7738;DHT22;29398;45.328;5.558;2022-10-03T01:01:35;16.70;99.90
7738;DHT22;29398;45.328;5.558;2022-10-03T01:02:47;16.70;99.90
7738;DHT22;29398;45.328;5.558;2022-10-03T01:04:02;16.70;99.90
7738;DHT22;29398;45.328;5.558;2022-10-03T01:11:30;16.70;99.90
7738;DHT22;29398;45.328;5.558;2022-10-03T01:15:08;16.70;99.90
7738;DHT22;29398;45.328;5.558;2022-10-03T01:16:18;16.70;99.90
7738;DHT22;29398;45.328;5.558;2022-10-03T01:17:24;16.70;99.90
7738;DHT22;29398;45.328;5.558;2022-10-03T01:18:36;16.60;99.90
7738;DHT22;29398;45.328;5.558;2022-10-03T01:19:59;16.60;99.90
7738;DHT22;29398;45.328;5.558;2022-10-03T01:22:20;16.60;99.90
7738;DHT22;29398;45.328;5.558;2022-10-03T01:26:25;16.60;99.90
7738;DHT22;29398;45.328;5.558;2022-10-03T01:29:05;16.60;99.90
7738;DHT22;29398;45.328;5.558;2022-10-03T01:33:49;16.60;99.90
7738;DHT22;29398;45.328;5.558;2022-10-03T01:34:59;16.60;99.90
7738;DHT22;29398;45.328;5.558;2022-10-03T01:36:09;16.50;99.90
7738;DHT22;29398;45.328;5.558;2022-10-03T01:38:24;16.50;99.90
7738;DHT22;29398;45.328;5.558;2022-10-03T01:40:36;16.50;99.90
7738;DHT22;29398;45.328;5.558;2022-10-03T01:44:12;16.50;99.90
7738;DHT22;29398;45.328;5.558;2022-10-03T01:46:34;16.50;99.90
7738;DHT22;29398;45.328;5.558;2022-10-03T01:47:43;16.50;99.90
7738;DHT22;29398;45.328;5.558;2022-10-03T01:48:58;16.50;99.90
7738;DHT22;29398;45.328;5.558;2022-10-03T01:50:06;16.50;99.90
7738;DHT22;29398;45.328;5.558;2022-10-03T01:51:12;16.50;99.90
7738;DHT22;29398;45.328;5.558;2022-10-03T01:52:19;16.40;99.90
7738;DHT22;29398;45.328;5.558;2022-10-03T01:53:32;16.40;99.90
7738;DHT22;29398;45.328;5.558;2022-10-03T01:54:40;16.40;99.90
7738;DHT22;29398;45.328;5.558;2022-10-03T01:56:55;16.50;99.90
7738;DHT22;29398;45.328;5.558;2022-10-03T02:01:21;16.50;99.90
7738;DHT22;29398;45.328;5.558;2022-10-03T02:02:30;16.50;99.90
7738;DHT22;29398;45.328;5.558;2022-10-03T02:03:36;16.50;99.90
7738;DHT22;29398;45.328;5.558;2022-10-03T02:04:49;16.50;99.90
7738;DHT22;29398;45.328;5.558;2022-10-03T02:05:56;16.40;99.90
7738;DHT22;29398;45.328;5.558;2022-10-03T02:08:21;16.40;99.90
7738;DHT22;29398;45.328;5.558;2022-10-03T02:10:40;16.50;99.90
7738;DHT22;29398;45.328;5.558;2022-10-03T02:11:59;16.50;99.90
7738;DHT22;29398;45.328;5.558;2022-10-03T02:13:08;16.50;99.90
7738;DHT22;29398;45.328;5.558;2022-10-03T02:14:21;16.40;99.90
7738;DHT22;29398;45.328;5.558;2022-10-03T02:17:42;16.40;99.90
7738;DHT22;29398;45.328;5.558;2022-10-03T02:19:59;16.40;99.90
7738;DHT22;29398;45.328;5.558;2022-10-03T02:21:09;16.40;99.90
7738;DHT22;29398;45.328;5.558;2022-10-03T02:22:15;16.30;99.90
7738;DHT22;29398;45.328;5.558;2022-10-03T02:24:45;16.30;99.90
7738;DHT22;29398;45.328;5.558;2022-10-03T02:25:57;16.30;99.90
7738;DHT22;29398;45.328;5.558;2022-10-03T02:27:15;16.20;99.90
7738;DHT22;29398;45.328;5.558;2022-10-03T02:30:01;16.10;99.90
7738;DHT22;29398;45.328;5.558;2022-10-03T02:31:24;16.10;99.90
7738;DHT22;29398;45.328;5.558;2022-10-03T02:33:02;16.00;99.90
7738;DHT22;29398;45.328;5.558;2022-10-03T02:34:24;16.00;99.90
7738;DHT22;29398;45.328;5.558;2022-10-03T02:39:09;15.90;99.90
7738;DHT22;29398;45.328;5.558;2022-10-03T02:40:55;15.90;99.90
7738;DHT22;29398;45.328;5.558;2022-10-03T02:42:47;15.90;99.90
7738;DHT22;29398;45.328;5.558;2022-10-03T02:44:27;15.90;99.90
7738;DHT22;29398;45.328;5.558;2022-10-03T02:46:01;15.90;99.90
7738;DHT22;29398;45.328;5.558;2022-10-03T02:48:58;15.90;99.90
7738;DHT22;29398;45.328;5.558;2022-10-03T02:52:27;15.90;99.90
7738;DHT22;29398;45.328;5.558;2022-10-03T02:54:01;15.90;99.90
7738;DHT22;29398;45.328;5.558;2022-10-03T02:55:34;15.90;99.90
7738;DHT22;29398;45.328;5.558;2022-10-03T02:58:54;15.90;99.90
7738;DHT22;29398;45.328;5.558;2022-10-03T03:00:08;15.90;99.90
7738;DHT22;29398;45.328;5.558;2022-10-03T03:03:41;15.90;99.90
7738;DHT22;29398;45.328;5.558;2022-10-03T03:05:22;16.00;99.90
7738;DHT22;29398;45.328;5.558;2022-10-03T03:08:33;16.10;99.90
7738;DHT22;29398;45.328;5.558;2022-10-03T03:09:52;16.10;99.90
7738;DHT22;29398;45.328;5.558;2022-10-03T03:11:08;16.10;99.90
7738;DHT22;29398;45.328;5.558;2022-10-03T03:12:31;16.20;99.90
7738;DHT22;29398;45.328;5.558;2022-10-03T03:16:54;16.20;99.90
7738;DHT22;29398;45.328;5.558;2022-10-03T03:18:05;16.30;99.90
7738;DHT22;29398;45.328;5.558;2022-10-03T03:19:27;16.30;99.90
7738;DHT22;29398;45.328;5.558;2022-10-03T03:20:48;16.30;99.90
7738;DHT22;29398;45.328;5.558;2022-10-03T03:22:00;16.30;99.90
7738;DHT22;29398;45.328;5.558;2022-10-03T03:23:26;16.20;99.90
7738;DHT22;29398;45.328;5.558;2022-10-03T03:24:40;16.20;99.90
7738;DHT22;29398;45.328;5.558;2022-10-03T03:27:46;16.10;99.90
7738;DHT22;29398;45.328;5.558;2022-10-03T03:28:58;16.10;99.90
7738;DHT22;29398;45.328;5.558;2022-10-03T03:30:07;16.10;99.90
7738;DHT22;29398;45.328;5.558;2022-10-03T03:31:12;16.10;99.90
7738;DHT22;29398;45.328;5.558;2022-10-03T03:32:25;16.10;99.90
7738;DHT22;29398;45.328;5.558;2022-10-03T03:33:39;16.10;99.90
7738;DHT22;29398;45.328;5.558;2022-10-03T03:34:53;16.10;99.90
7738;DHT22;29398;45.328;5.558;2022-10-03T03:36:03;16.10;99.90
7738;DHT22;29398;45.328;5.558;2022-10-03T03:37:10;16.20;99.90
7738;DHT22;29398;45.328;5.558;2022-10-03T03:38:27;16.20;99.90
7738;DHT22;29398;45.328;5.558;2022-10-03T03:39:41;16.20;99.90
7738;DHT22;29398;45.328;5.558;2022-10-03T03:40:55;16.20;99.90
7738;DHT22;29398;45.328;5.558;2022-10-03T03:42:14;16.20;99.90
7738;DHT22;29398;45.328;5.558;2022-10-03T03:43:36;16.10;99.90
7738;DHT22;29398;45.328;5.558;2022-10-03T03:44:57;16.10;99.90
7738;DHT22;29398;45.328;5.558;2022-10-03T03:46:11;16.10;99.90
7738;DHT22;29398;45.328;5.558;2022-10-03T03:47:33;16.10;99.90
7738;DHT22;29398;45.328;5.558;2022-10-03T03:48:59;16.10;99.90
7738;DHT22;29398;45.328;5.558;2022-10-03T03:50:21;16.00;99.90
7738;DHT22;29398;45.328;5.558;2022-10-03T03:51:31;16.10;99.90
7738;DHT22;29398;45.328;5.558;2022-10-03T03:52:44;16.00;99.90
7738;DHT22;29398;45.328;5.558;2022-10-03T03:55:46;16.10;99.90
7738;DHT22;29398;45.328;5.558;2022-10-03T03:56:57;16.10;99.90
7738;DHT22;29398;45.328;5.558;2022-10-03T03:58:16;16.10;99.90
7738;DHT22;29398;45.328;5.558;2022-10-03T03:59:25;16.10;99.90
7738;DHT22;29398;45.328;5.558;2022-10-03T04:00:44;16.20;99.90
7738;DHT22;29398;45.328;5.558;2022-10-03T04:01:57;16.20;99.90
7738;DHT22;29398;45.328;5.558;2022-10-03T04:04:24;16.10;99.90
7738;DHT22;29398;45.328;5.558;2022-10-03T04:05:46;16.20;99.90
7738;DHT22;29398;45.328;5.558;2022-10-03T04:06:59;16.20;99.90
7738;DHT22;29398;45.328;5.558;2022-10-03T04:08:29;16.10;99.90
7738;DHT22;29398;45.328;5.558;2022-10-03T04:09:57;16.10;99.90
7738;DHT22;29398;45.328;5.558;2022-10-03T04:11:16;16.10;99.90
7738;DHT22;29398;45.328;5.558;2022-10-03T04:12:29;16.10;99.90
7738;DHT22;29398;45.328;5.558;2022-10-03T04:13:52;16.00;99.90
7738;DHT22;29398;45.328;5.558;2022-10-03T04:15:19;16.00;99.90
7738;DHT22;29398;45.328;5.558;2022-10-03T04:16:38;16.00;99.90
7738;DHT22;29398;45.328;5.558;2022-10-03T04:18:26;16.00;99.90
7738;DHT22;29398;45.328;5.558;2022-10-03T04:20:01;16.00;99.90
7738;DHT22;29398;45.328;5.558;2022-10-03T04:22:49;16.00;99.90
7738;DHT22;29398;45.328;5.558;2022-10-03T04:24:05;16.00;99.90
7738;DHT22;29398;45.328;5.558;2022-10-03T04:26:55;16.00;99.90
7738;DHT22;29398;45.328;5.558;2022-10-03T04:29:43;16.00;99.90
7738;DHT22;29398;45.328;5.558;2022-10-03T04:30:54;16.00;99.90
7738;DHT22;29398;45.328;5.558;2022-10-03T04:32:06;16.00;99.90
7738;DHT22;29398;45.328;5.558;2022-10-03T04:33:21;16.00;99.90
7738;DHT22;29398;45.328;5.558;2022-10-03T04:34:35;16.10;99.90
7738;DHT22;29398;45.328;5.558;2022-10-03T04:36:06;16.10;99.90
7738;DHT22;29398;45.328;5.558;2022-10-03T04:37:30;16.20;99.90
7738;DHT22;29398;45.328;5.558;2022-10-03T04:38:42;16.20;99.90
7738;DHT22;29398;45.328;5.558;2022-10-03T04:39:56;16.20;99.90
7738;DHT22;29398;45.328;5.558;2022-10-03T04:41:07;16.20;99.90
7738;DHT22;29398;45.328;5.558;2022-10-03T04:42:19;16.20;99.90
7738;DHT22;29398;45.328;5.558;2022-10-03T04:43:34;16.20;99.90
7738;DHT22;29398;45.328;5.558;2022-10-03T04:44:50;16.20;99.90
7738;DHT22;29398;45.328;5.558;2022-10-03T04:46:09;16.10;99.90
7738;DHT22;29398;45.328;5.558;2022-10-03T04:47:19;16.20;99.90
7738;DHT22;29398;45.328;5.558;2022-10-03T04:48:26;16.20;99.90
7738;DHT22;29398;45.328;5.558;2022-10-03T04:49:33;16.20;99.90
7738;DHT22;29398;45.328;5.558;2022-10-03T04:50:41;16.30;99.90
7738;DHT22;29398;45.328;5.558;2022-10-03T04:51:52;16.20;99.90
7738;DHT22;29398;45.328;5.558;2022-10-03T04:53:14;16.20;99.90
7738;DHT22;29398;45.328;5.558;2022-10-03T04:54:29;16.20;99.90
7738;DHT22;29398;45.328;5.558;2022-10-03T04:55:40;16.20;99.90
7738;DHT22;29398;45.328;5.558;2022-10-03T04:56:49;16.20;99.90
7738;DHT22;29398;45.328;5.558;2022-10-03T04:57:59;16.20;99.90
7738;DHT22;29398;45.328;5.558;2022-10-03T04:59:07;16.10;99.90
7738;DHT22;29398;45.328;5.558;2022-10-03T05:00:22;16.00;99.90
7738;DHT22;29398;45.328;5.558;2022-10-03T05:01:27;16.00;99.90
7738;DHT22;29398;45.328;5.558;2022-10-03T05:02:44;16.00;99.90
7738;DHT22;29398;45.328;5.558;2022-10-03T05:03:57;16.00;99.90
7738;DHT22;29398;45.328;5.558;2022-10-03T05:06:40;15.90;99.90
7738;DHT22;29398;45.328;5.558;2022-10-03T05:07:52;15.90;99.90
7738;DHT22;29398;45.328;5.558;2022-10-03T05:09:01;15.90;99.90
7738;DHT22;29398;45.328;5.558;2022-10-03T05:10:25;15.80;99.90
7738;DHT22;29398;45.328;5.558;2022-10-03T05:11:40;15.80;99.90
7738;DHT22;29398;45.328;5.558;2022-10-03T05:12:49;15.80;99.90
7738;DHT22;29398;45.328;5.558;2022-10-03T05:14:02;15.80;99.90
7738;DHT22;29398;45.328;5.558;2022-10-03T05:15:17;15.80;99.90
7738;DHT22;29398;45.328;5.558;2022-10-03T05:16:30;15.70;99.90
7738;DHT22;29398;45.328;5.558;2022-10-03T05:17:43;15.80;99.90
7738;DHT22;29398;45.328;5.558;2022-10-03T05:18:51;15.80;99.90
7738;DHT22;29398;45.328;5.558;2022-10-03T05:20:23;15.80;99.90
7738;DHT22;29398;45.328;5.558;2022-10-03T05:21:32;15.70;99.90
7738;DHT22;29398;45.328;5.558;2022-10-03T05:22:45;15.70;99.90
7738;DHT22;29398;45.328;5.558;2022-10-03T05:24:00;15.70;99.90
7738;DHT22;29398;45.328;5.558;2022-10-03T05:25:21;15.70;99.90
7738;DHT22;29398;45.328;5.558;2022-10-03T05:26:38;15.70;99.90
7738;DHT22;29398;45.328;5.558;2022-10-03T05:27:46;15.80;99.90
7738;DHT22;29398;45.328;5.558;2022-10-03T05:28:56;15.80;99.90
7738;DHT22;29398;45.328;5.558;2022-10-03T05:30:04;15.80;99.90
7738;DHT22;29398;45.328;5.558;2022-10-03T05:31:22;15.80;99.90
7738;DHT22;29398;45.328;5.558;2022-10-03T05:32:32;15.70;99.90
7738;DHT22;29398;45.328;5.558;2022-10-03T05:33:41;15.70;99.90
7738;DHT22;29398;45.328;5.558;2022-10-03T05:34:59;15.80;99.90
7738;DHT22;29398;45.328;5.558;2022-10-03T05:36:12;15.80;99.90
7738;DHT22;29398;45.328;5.558;2022-10-03T05:37:27;15.80;99.90
7738;DHT22;29398;45.328;5.558;2022-10-03T05:40:34;15.90;99.90
7738;DHT22;29398;45.328;5.558;2022-10-03T05:41:38;15.90;99.90
7738;DHT22;29398;45.328;5.558;2022-10-03T05:42:56;15.80;99.90
7738;DHT22;29398;45.328;5.558;2022-10-03T05:44:04;15.90;99.90
7738;DHT22;29398;45.328;5.558;2022-10-03T05:45:23;15.80;99.90
7738;DHT22;29398;45.328;5.558;2022-10-03T05:46:39;18.20;99.90
7738;DHT22;29398;45.328;5.558;2022-10-03T05:47:48;15.80;99.90
7738;DHT22;29398;45.328;5.558;2022-10-03T05:48:57;15.70;99.90
7738;DHT22;29398;45.328;5.558;2022-10-03T05:50:12;15.70;99.90
7738;DHT22;29398;45.328;5.558;2022-10-03T05:51:42;15.70;99.90
7738;DHT22;29398;45.328;5.558;2022-10-03T05:53:15;15.70;99.90
7738;DHT22;29398;45.328;5.558;2022-10-03T05:54:59;15.70;99.90
7738;DHT22;29398;45.328;5.558;2022-10-03T05:56:07;15.70;99.90
7738;DHT22;29398;45.328;5.558;2022-10-03T06:00:37;15.70;99.90
7738;DHT22;29398;45.328;5.558;2022-10-03T06:01:56;15.70;99.90
7738;DHT22;29398;45.328;5.558;2022-10-03T06:03:32;15.70;99.90
7738;DHT22;29398;45.328;5.558;2022-10-03T06:04:55;15.70;99.90
7738;DHT22;29398;45.328;5.558;2022-10-03T06:06:10;15.70;99.90
7738;DHT22;29398;45.328;5.558;2022-10-03T06:07:20;15.70;99.90
7738;DHT22;29398;45.328;5.558;2022-10-03T06:08:49;15.60;99.90
7738;DHT22;29398;45.328;5.558;2022-10-03T06:10:33;15.60;99.90
7738;DHT22;29398;45.328;5.558;2022-10-03T06:11:54;15.60;99.90
7738;DHT22;29398;45.328;5.558;2022-10-03T06:13:06;15.60;99.90
7738;DHT22;29398;45.328;5.558;2022-10-03T06:14:23;15.60;99.90
7738;DHT22;29398;45.328;5.558;2022-10-03T06:15:42;15.60;99.90
7738;DHT22;29398;45.328;5.558;2022-10-03T06:17:02;15.60;99.90
7738;DHT22;29398;45.328;5.558;2022-10-03T06:19:45;15.60;99.90
7738;DHT22;29398;45.328;5.558;2022-10-03T06:21:08;15.50;99.90
7738;DHT22;29398;45.328;5.558;2022-10-03T06:22:38;15.50;99.90
7738;DHT22;29398;45.328;5.558;2022-10-03T06:27:30;15.50;99.90
7738;DHT22;29398;45.328;5.558;2022-10-03T06:29:01;15.50;99.90
7738;DHT22;29398;45.328;5.558;2022-10-03T06:30:19;15.50;99.90
7738;DHT22;29398;45.328;5.558;2022-10-03T06:33:35;15.50;99.90
7738;DHT22;29398;45.328;5.558;2022-10-03T06:38:35;15.60;99.90
7738;DHT22;29398;45.328;5.558;2022-10-03T06:40:10;15.60;99.90
7738;DHT22;29398;45.328;5.558;2022-10-03T06:43:02;15.70;99.90
7738;DHT22;29398;45.328;5.558;2022-10-03T06:46:10;15.80;99.90
7738;DHT22;29398;45.328;5.558;2022-10-03T06:47:32;15.90;99.90
7738;DHT22;29398;45.328;5.558;2022-10-03T06:49:20;15.90;99.90
7738;DHT22;29398;45.328;5.558;2022-10-03T06:50:48;16.00;99.90
7738;DHT22;29398;45.328;5.558;2022-10-03T06:52:10;16.10;99.90
7738;DHT22;29398;45.328;5.558;2022-10-03T06:53:40;16.20;99.90
7738;DHT22;29398;45.328;5.558;2022-10-03T06:56:40;16.30;99.90
7738;DHT22;29398;45.328;5.558;2022-10-03T06:59:37;16.50;99.90
7738;DHT22;29398;45.328;5.558;2022-10-03T07:00:52;16.50;99.90
7738;DHT22;29398;45.328;5.558;2022-10-03T07:02:34;16.60;99.90
7738;DHT22;29398;45.328;5.558;2022-10-03T07:04:02;16.60;99.90
7738;DHT22;29398;45.328;5.558;2022-10-03T07:07:14;16.70;99.90
7738;DHT22;29398;45.328;5.558;2022-10-03T07:08:42;16.90;99.90
7738;DHT22;29398;45.328;5.558;2022-10-03T07:10:03;17.00;99.90
7738;DHT22;29398;45.328;5.558;2022-10-03T07:11:27;17.00;99.90
7738;DHT22;29398;45.328;5.558;2022-10-03T07:13:05;17.20;99.90
7738;DHT22;29398;45.328;5.558;2022-10-03T07:17:49;17.80;99.90
7738;DHT22;29398;45.328;5.558;2022-10-03T07:19:14;17.90;99.90
7738;DHT22;29398;45.328;5.558;2022-10-03T07:22:23;18.30;99.90
7738;DHT22;29398;45.328;5.558;2022-10-03T07:25:22;18.30;99.90
7738;DHT22;29398;45.328;5.558;2022-10-03T07:27:02;18.40;99.90
7738;DHT22;29398;45.328;5.558;2022-10-03T07:30:03;19.10;99.90
7738;DHT22;29398;45.328;5.558;2022-10-03T07:31:17;19.10;99.90
7738;DHT22;29398;45.328;5.558;2022-10-03T07:32:31;21.00;99.90
7738;DHT22;29398;45.328;5.558;2022-10-03T07:35:25;19.40;99.90
7738;DHT22;29398;45.328;5.558;2022-10-03T07:37:21;19.60;99.90
7738;DHT22;29398;45.328;5.558;2022-10-03T07:39:17;19.70;99.90
7738;DHT22;29398;45.328;5.558;2022-10-03T07:40:56;19.70;99.90
7738;DHT22;29398;45.328;5.558;2022-10-03T07:42:24;19.70;99.90
7738;DHT22;29398;45.328;5.558;2022-10-03T07:46:50;19.50;99.90
7738;DHT22;29398;45.328;5.558;2022-10-03T07:48:17;19.50;99.90
7738;DHT22;29398;45.328;5.558;2022-10-03T07:49:42;19.40;99.90
7738;DHT22;29398;45.328;5.558;2022-10-03T07:50:56;19.30;99.90
7738;DHT22;29398;45.328;5.558;2022-10-03T07:52:24;19.10;99.90
7738;DHT22;29398;45.328;5.558;2022-10-03T07:54:05;19.10;99.90
7738;DHT22;29398;45.328;5.558;2022-10-03T07:55:27;19.00;99.90
7738;DHT22;29398;45.328;5.558;2022-10-03T07:56:52;19.00;99.90
7738;DHT22;29398;45.328;5.558;2022-10-03T08:00:06;19.10;99.90
7738;DHT22;29398;45.328;5.558;2022-10-03T08:01:29;19.10;99.90
7738;DHT22;29398;45.328;5.558;2022-10-03T08:04:33;19.10;99.90
7738;DHT22;29398;45.328;5.558;2022-10-03T08:05:48;19.00;99.90
7738;DHT22;29398;45.328;5.558;2022-10-03T08:07:07;19.00;99.90
7738;DHT22;29398;45.328;5.558;2022-10-03T08:10:03;19.10;99.90
7738;DHT22;29398;45.328;5.558;2022-10-03T08:11:30;19.20;99.90
7738;DHT22;29398;45.328;5.558;2022-10-03T08:13:58;19.80;99.90
7738;DHT22;29398;45.328;5.558;2022-10-03T08:15:09;20.40;99.90
7738;DHT22;29398;45.328;5.558;2022-10-03T08:16:22;21.00;99.90
7738;DHT22;29398;45.328;5.558;2022-10-03T08:18:03;21.30;99.90
7738;DHT22;29398;45.328;5.558;2022-10-03T08:19:21;21.50;99.90
7738;DHT22;29398;45.328;5.558;2022-10-03T08:20:37;21.60;99.90
7738;DHT22;29398;45.328;5.558;2022-10-03T08:21:52;21.60;99.90
7738;DHT22;29398;45.328;5.558;2022-10-03T08:23:07;21.70;99.90
7738;DHT22;29398;45.328;5.558;2022-10-03T08:24:40;21.80;99.90
7738;DHT22;29398;45.328;5.558;2022-10-03T08:25:57;21.80;99.90
7738;DHT22;29398;45.328;5.558;2022-10-03T08:28:47;21.70;99.90
7738;DHT22;29398;45.328;5.558;2022-10-03T08:30:03;21.90;99.90
7738;DHT22;29398;45.328;5.558;2022-10-03T08:33:37;21.80;99.90
7738;DHT22;29398;45.328;5.558;2022-10-03T08:35:15;21.90;99.90
7738;DHT22;29398;45.328;5.558;2022-10-03T08:38:30;22.40;99.90
7738;DHT22;29398;45.328;5.558;2022-10-03T08:39:51;23.30;99.90
7738;DHT22;29398;45.328;5.558;2022-10-03T08:46:04;27.90;95.40
7738;DHT22;29398;45.328;5.558;2022-10-03T08:49:40;30.00;93.00
7738;DHT22;29398;45.328;5.558;2022-10-03T08:51:00;30.80;86.10
7738;DHT22;29398;45.328;5.558;2022-10-03T08:52:18;30.80;94.80
7738;DHT22;29398;45.328;5.558;2022-10-03T08:55:44;31.80;80.30
7738;DHT22;29398;45.328;5.558;2022-10-03T08:57:02;31.80;76.20
7738;DHT22;29398;45.328;5.558;2022-10-03T08:58:21;31.60;81.30
7738;DHT22;29398;45.328;5.558;2022-10-03T09:00:01;31.10;71.40
7738;DHT22;29398;45.328;5.558;2022-10-03T09:01:18;30.20;78.90
7738;DHT22;29398;45.328;5.558;2022-10-03T09:04:46;29.00;76.80
7738;DHT22;29398;45.328;5.558;2022-10-03T09:06:18;29.00;74.40
7738;DHT22;29398;45.328;5.558;2022-10-03T09:07:48;28.30;75.00
7738;DHT22;29398;45.328;5.558;2022-10-03T09:09:11;27.70;77.50
7738;DHT22;29398;45.328;5.558;2022-10-03T09:10:33;27.20;79.60
7738;DHT22;29398;45.328;5.558;2022-10-03T09:11:52;26.80;79.50
7738;DHT22;29398;45.328;5.558;2022-10-03T09:13:21;26.50;80.00
7738;DHT22;29398;45.328;5.558;2022-10-03T09:18:25;25.10;82.90
7738;DHT22;29398;45.328;5.558;2022-10-03T09:20:01;24.80;85.20
7738;DHT22;29398;45.328;5.558;2022-10-03T09:21:34;24.60;85.70
7738;DHT22;29398;45.328;5.558;2022-10-03T09:25:40;23.90;87.10
7738;DHT22;29398;45.328;5.558;2022-10-03T09:27:05;23.80;87.60
7738;DHT22;29398;45.328;5.558;2022-10-03T09:28:42;23.70;87.90
7738;DHT22;29398;45.328;5.558;2022-10-03T09:30:15;23.60;88.90
7738;DHT22;29398;45.328;5.558;2022-10-03T09:31:32;23.50;90.20
7738;DHT22;29398;45.328;5.558;2022-10-03T09:36:08;23.70;90.90
7738;DHT22;29398;45.328;5.558;2022-10-03T09:37:29;23.80;91.00
7738;DHT22;29398;45.328;5.558;2022-10-03T09:40:36;23.80;91.00
7738;DHT22;29398;45.328;5.558;2022-10-03T09:45:10;24.20;91.20
7738;DHT22;29398;45.328;5.558;2022-10-03T09:48:29;24.20;90.90
7738;DHT22;29398;45.328;5.558;2022-10-03T09:51:18;24.40;91.30
7738;DHT22;29398;45.328;5.558;2022-10-03T09:52:30;24.50;91.40
7738;DHT22;29398;45.328;5.558;2022-10-03T09:55:34;25.60;91.90
7738;DHT22;29398;45.328;5.558;2022-10-03T09:58:37;26.80;90.00
7738;DHT22;29398;45.328;5.558;2022-10-03T10:01:25;28.70;90.30
7738;DHT22;29398;45.328;5.558;2022-10-03T10:03:01;29.70;82.70
7738;DHT22;29398;45.328;5.558;2022-10-03T10:05:53;30.20;75.00
7738;DHT22;29398;45.328;5.558;2022-10-03T10:09:02;30.70;76.90
7738;DHT22;29398;45.328;5.558;2022-10-03T10:10:20;30.90;71.90
7738;DHT22;29398;45.328;5.558;2022-10-03T10:11:39;31.60;67.50
7738;DHT22;29398;45.328;5.558;2022-10-03T10:14:49;32.50;70.50
7738;DHT22;29398;45.328;5.558;2022-10-03T10:17:59;32.70;66.50
7738;DHT22;29398;45.328;5.558;2022-10-03T10:19:42;32.60;62.20
7738;DHT22;29398;45.328;5.558;2022-10-03T10:23:04;32.90;62.50
7738;DHT22;29398;45.328;5.558;2022-10-03T10:24:48;32.60;62.50
7738;DHT22;29398;45.328;5.558;2022-10-03T10:29:49;30.40;64.80
7738;DHT22;29398;45.328;5.558;2022-10-03T10:32:53;31.30;64.20
7738;DHT22;29398;45.328;5.558;2022-10-03T10:37:43;32.20;63.40
7738;DHT22;29398;45.328;5.558;2022-10-03T10:39:18;32.90;65.90
7738;DHT22;29398;45.328;5.558;2022-10-03T10:43:52;35.70;57.50
7738;DHT22;29398;45.328;5.558;2022-10-03T10:45:28;35.90;57.00
7738;DHT22;29398;45.328;5.558;2022-10-03T10:47:11;36.70;56.90
7738;DHT22;29398;45.328;5.558;2022-10-03T10:50:24;37.60;54.90
7738;DHT22;29398;45.328;5.558;2022-10-03T10:56:50;39.30;52.60
7738;DHT22;29398;45.328;5.558;2022-10-03T11:00:04;39.50;49.50
7738;DHT22;29398;45.328;5.558;2022-10-03T11:01:47;39.70;50.50
7738;DHT22;29398;45.328;5.558;2022-10-03T11:06:56;40.00;48.40
7738;DHT22;29398;45.328;5.558;2022-10-03T11:08:34;40.20;49.70
7738;DHT22;29398;45.328;5.558;2022-10-03T11:10:03;40.40;46.00
7738;DHT22;29398;45.328;5.558;2022-10-03T11:16:54;40.30;47.00
7738;DHT22;29398;45.328;5.558;2022-10-03T11:22:02;41.30;46.60
7738;DHT22;29398;45.328;5.558;2022-10-03T11:27:08;41.60;43.90
7738;DHT22;29398;45.328;5.558;2022-10-03T11:30:15;41.80;45.60
7738;DHT22;29398;45.328;5.558;2022-10-03T11:32:02;42.10;44.30
7738;DHT22;29398;45.328;5.558;2022-10-03T11:33:48;42.10;45.40
7738;DHT22;29398;45.328;5.558;2022-10-03T11:35:28;40.40;43.50
7738;DHT22;29398;45.328;5.558;2022-10-03T11:37:01;38.50;44.30
7738;DHT22;29398;45.328;5.558;2022-10-03T11:38:10;38.40;47.10
7738;DHT22;29398;45.328;5.558;2022-10-03T11:39:22;38.80;47.60
7738;DHT22;29398;45.328;5.558;2022-10-03T11:40:35;39.50;47.10
7738;DHT22;29398;45.328;5.558;2022-10-03T11:41:52;40.40;46.80
7738;DHT22;29398;45.328;5.558;2022-10-03T11:44:31;41.10;45.90
7738;DHT22;29398;45.328;5.558;2022-10-03T11:45:41;42.20;43.80
7738;DHT22;29398;45.328;5.558;2022-10-03T11:47:04;42.60;43.90
7738;DHT22;29398;45.328;5.558;2022-10-03T11:48:23;42.00;44.20
7738;DHT22;29398;45.328;5.558;2022-10-03T11:49:49;40.70;43.70
7738;DHT22;29398;45.328;5.558;2022-10-03T11:50:53;39.20;44.30
7738;DHT22;29398;45.328;5.558;2022-10-03T11:52:09;38.20;44.50
7738;DHT22;29398;45.328;5.558;2022-10-03T11:53:33;37.50;45.50
7738;DHT22;29398;45.328;5.558;2022-10-03T11:54:39;37.10;46.70
7738;DHT22;29398;45.328;5.558;2022-10-03T11:55:47;38.00;47.40
7738;DHT22;29398;45.328;5.558;2022-10-03T11:56:58;38.60;46.40
7738;DHT22;29398;45.328;5.558;2022-10-03T11:58:20;39.10;45.00
7738;DHT22;29398;45.328;5.558;2022-10-03T11:59:33;39.20;46.10
7738;DHT22;29398;45.328;5.558;2022-10-03T12:00:38;39.40;46.80
7738;DHT22;29398;45.328;5.558;2022-10-03T12:01:55;38.80;44.90
7738;DHT22;29398;45.328;5.558;2022-10-03T12:03:14;38.10;45.50
7738;DHT22;29398;45.328;5.558;2022-10-03T12:04:24;37.50;45.70
7738;DHT22;29398;45.328;5.558;2022-10-03T12:05:39;36.60;46.00